sensor_id;sensor_type;location;lat;lon;timestamp;temperature;humidity
17174;DHT22;8702;48.130;-1.696;2023-10-09T00:01:51;18.70;99.90
17174;DHT22;8702;48.130;-1.696;2023-10-09T00:04:19;18.60;99.90
17174;DHT22;8702;48.130;-1.696;2023-10-09T00:06:47;18.50;99.90
17174;DHT22;8702;48.130;-1.696;2023-10-09T00:09:15;18.40;99.90
17174;DHT22;8702;48.130;-1.696;2023-10-09T00:12:06;18.30;99.90
17174;DHT22;8702;48.130;-1.696;2023-10-09T00:14:37;18.20;99.90
17174;DHT22;8702;48.130;-1.696;2023-10-09T00:17:06;18.20;99.90
17174;DHT22;8702;48.130;-1.696;2023-10-09T00:19:42;18.20;99.90
17174;DHT22;8702;48.130;-1.696;2023-10-09T00:22:12;18.10;99.90
17174;DHT22;8702;48.130;-1.696;2023-10-09T00:24:52;18.10;99.90
17174;DHT22;8702;48.130;-1.696;2023-10-09T00:27:36;18.10;99.90
17174;DHT22;8702;48.130;-1.696;2023-10-09T00:30:09;17.90;99.90
17174;DHT22;8702;48.130;-1.696;2023-10-09T00:32:40;17.80;99.90
17174;DHT22;8702;48.130;-1.696;2023-10-09T00:35:17;17.80;99.90
17174;DHT22;8702;48.130;-1.696;2023-10-09T00:38:03;17.80;99.90
17174;DHT22;8702;48.130;-1.696;2023-10-09T00:40:40;17.80;99.90
17174;DHT22;8702;48.130;-1.696;2023-10-09T00:43:13;17.70;99.90
17174;DHT22;8702;48.130;-1.696;2023-10-09T00:45:43;17.70;99.90
17174;DHT22;8702;48.130;-1.696;2023-10-09T00:48:11;17.60;99.90
17174;DHT22;8702;48.130;-1.696;2023-10-09T00:50:40;17.50;99.90
17174;DHT22;8702;48.130;-1.696;2023-10-09T00:53:14;17.50;99.90
17174;DHT22;8702;48.130;-1.696;2023-10-09T00:55:44;17.50;99.90
17174;DHT22;8702;48.130;-1.696;2023-10-09T00:58:16;17.50;99.90
17174;DHT22;8702;48.130;-1.696;2023-10-09T01:00:51;17.40;99.90
17174;DHT22;8702;48.130;-1.696;2023-10-09T01:03:19;17.50;99.90
17174;DHT22;8702;48.130;-1.696;2023-10-09T01:05:51;17.50;99.90
17174;DHT22;8702;48.130;-1.696;2023-10-09T01:08:23;17.40;99.90
17174;DHT22;8702;48.130;-1.696;2023-10-09T01:10:56;17.40;99.90
17174;DHT22;8702;48.130;-1.696;2023-10-09T01:13:34;17.50;99.90
17174;DHT22;8702;48.130;-1.696;2023-10-09T01:16:20;17.30;99.90
17174;DHT22;8702;48.130;-1.696;2023-10-09T01:18:49;17.40;99.90
17174;DHT22;8702;48.130;-1.696;2023-10-09T01:21:16;17.30;99.90
17174;DHT22;8702;48.130;-1.696;2023-10-09T01:23:45;17.40;99.90
17174;DHT22;8702;48.130;-1.696;2023-10-09T01:26:29;17.30;99.90
17174;DHT22;8702;48.130;-1.696;2023-10-09T01:28:58;17.30;99.90
17174;DHT22;8702;48.130;-1.696;2023-10-09T01:31:26;17.30;99.90
17174;DHT22;8702;48.130;-1.696;2023-10-09T01:33:59;17.40;99.90
17174;DHT22;8702;48.130;-1.696;2023-10-09T01:36:29;17.40;99.90
17174;DHT22;8702;48.130;-1.696;2023-10-09T01:39:00;17.40;99.90
17174;DHT22;8702;48.130;-1.696;2023-10-09T01:41:32;17.40;99.90
17174;DHT22;8702;48.130;-1.696;2023-10-09T01:43:59;17.30;99.90
17174;DHT22;8702;48.130;-1.696;2023-10-09T01:46:35;17.30;99.90
17174;DHT22;8702;48.130;-1.696;2023-10-09T01:49:02;17.30;99.90
17174;DHT22;8702;48.130;-1.696;2023-10-09T01:51:37;17.20;99.90
17174;DHT22;8702;48.130;-1.696;2023-10-09T01:54:05;17.10;99.90
17174;DHT22;8702;48.130;-1.696;2023-10-09T01:56:32;17.10;99.90
17174;DHT22;8702;48.130;-1.696;2023-10-09T01:59:02;17.10;99.90
17174;DHT22;8702;48.130;-1.696;2023-10-09T02:01:31;17.00;99.90
17174;DHT22;8702;48.130;-1.696;2023-10-09T02:03:59;17.00;99.90
17174;DHT22;8702;48.130;-1.696;2023-10-09T02:06:31;16.90;99.90
17174;DHT22;8702;48.130;-1.696;2023-10-09T02:08:58;16.90;99.90
17174;DHT22;8702;48.130;-1.696;2023-10-09T02:11:26;16.90;99.90
17174;DHT22;8702;48.130;-1.696;2023-10-09T02:14:07;16.80;99.90
17174;DHT22;8702;48.130;-1.696;2023-10-09T02:16:45;16.70;99.90
17174;DHT22;8702;48.130;-1.696;2023-10-09T02:19:28;16.70;99.90
17174;DHT22;8702;48.130;-1.696;2023-10-09T02:21:59;16.60;99.90
17174;DHT22;8702;48.130;-1.696;2023-10-09T02:24:28;16.50;99.90
17174;DHT22;8702;48.130;-1.696;2023-10-09T02:27:17;16.50;99.90
17174;DHT22;8702;48.130;-1.696;2023-10-09T02:30:07;16.50;99.90
17174;DHT22;8702;48.130;-1.696;2023-10-09T02:32:45;16.40;99.90
17174;DHT22;8702;48.130;-1.696;2023-10-09T02:35:18;16.30;99.90
17174;DHT22;8702;48.130;-1.696;2023-10-09T02:37:57;16.30;99.90
17174;DHT22;8702;48.130;-1.696;2023-10-09T02:40:27;16.30;99.90
17174;DHT22;8702;48.130;-1.696;2023-10-09T02:42:59;16.30;99.90
17174;DHT22;8702;48.130;-1.696;2023-10-09T02:45:26;16.30;99.90
17174;DHT22;8702;48.130;-1.696;2023-10-09T02:48:00;16.30;99.90
17174;DHT22;8702;48.130;-1.696;2023-10-09T02:50:36;16.40;99.90
17174;DHT22;8702;48.130;-1.696;2023-10-09T02:53:03;16.40;99.90
17174;DHT22;8702;48.130;-1.696;2023-10-09T02:55:35;16.40;99.90
17174;DHT22;8702;48.130;-1.696;2023-10-09T02:58:06;16.50;99.90
17174;DHT22;8702;48.130;-1.696;2023-10-09T03:00:36;16.50;99.90
17174;DHT22;8702;48.130;-1.696;2023-10-09T03:03:04;16.50;99.90
17174;DHT22;8702;48.130;-1.696;2023-10-09T03:05:33;16.60;99.90
17174;DHT22;8702;48.130;-1.696;2023-10-09T03:08:00;16.60;99.90
17174;DHT22;8702;48.130;-1.696;2023-10-09T03:10:27;16.60;99.90
17174;DHT22;8702;48.130;-1.696;2023-10-09T03:12:54;16.60;99.90
17174;DHT22;8702;48.130;-1.696;2023-10-09T03:15:22;16.60;99.90
17174;DHT22;8702;48.130;-1.696;2023-10-09T03:17:49;16.60;99.90
17174;DHT22;8702;48.130;-1.696;2023-10-09T03:20:16;16.60;99.90
17174;DHT22;8702;48.130;-1.696;2023-10-09T03:22:44;16.50;99.90
17174;DHT22;8702;48.130;-1.696;2023-10-09T03:25:11;16.40;99.90
17174;DHT22;8702;48.130;-1.696;2023-10-09T03:27:39;16.40;99.90
17174;DHT22;8702;48.130;-1.696;2023-10-09T03:30:11;16.30;99.90
17174;DHT22;8702;48.130;-1.696;2023-10-09T03:32:43;16.30;99.90
17174;DHT22;8702;48.130;-1.696;2023-10-09T03:35:14;16.30;99.90
17174;DHT22;8702;48.130;-1.696;2023-10-09T03:37:49;16.30;99.90
17174;DHT22;8702;48.130;-1.696;2023-10-09T03:40:16;16.20;99.90
17174;DHT22;8702;48.130;-1.696;2023-10-09T03:42:44;16.20;99.90
17174;DHT22;8702;48.130;-1.696;2023-10-09T03:45:10;16.20;99.90
17174;DHT22;8702;48.130;-1.696;2023-10-09T03:47:51;16.10;99.90
17174;DHT22;8702;48.130;-1.696;2023-10-09T03:50:23;16.20;99.90
17174;DHT22;8702;48.130;-1.696;2023-10-09T03:52:59;16.20;99.90
17174;DHT22;8702;48.130;-1.696;2023-10-09T03:55:26;16.20;99.90
17174;DHT22;8702;48.130;-1.696;2023-10-09T03:57:54;16.20;99.90
17174;DHT22;8702;48.130;-1.696;2023-10-09T04:00:23;16.20;99.90
17174;DHT22;8702;48.130;-1.696;2023-10-09T04:02:55;16.20;99.90
17174;DHT22;8702;48.130;-1.696;2023-10-09T04:05:23;16.10;99.90
17174;DHT22;8702;48.130;-1.696;2023-10-09T04:07:51;16.10;99.90
17174;DHT22;8702;48.130;-1.696;2023-10-09T04:10:19;16.10;99.90
17174;DHT22;8702;48.130;-1.696;2023-10-09T04:13:04;16.10;99.90
17174;DHT22;8702;48.130;-1.696;2023-10-09T04:15:34;16.00;99.90
17174;DHT22;8702;48.130;-1.696;2023-10-09T04:18:03;16.00;99.90
17174;DHT22;8702;48.130;-1.696;2023-10-09T04:20:31;16.10;99.90
17174;DHT22;8702;48.130;-1.696;2023-10-09T04:23:15;15.90;99.90
17174;DHT22;8702;48.130;-1.696;2023-10-09T04:25:59;16.10;99.90
17174;DHT22;8702;48.130;-1.696;2023-10-09T04:28:25;16.10;99.90
17174;DHT22;8702;48.130;-1.696;2023-10-09T04:30:55;16.10;99.90
17174;DHT22;8702;48.130;-1.696;2023-10-09T04:33:25;16.10;99.90
17174;DHT22;8702;48.130;-1.696;2023-10-09T04:36:07;16.10;99.90
17174;DHT22;8702;48.130;-1.696;2023-10-09T04:38:48;16.10;99.90
17174;DHT22;8702;48.130;-1.696;2023-10-09T04:41:40;16.10;99.90
17174;DHT22;8702;48.130;-1.696;2023-10-09T04:44:18;16.00;99.90
17174;DHT22;8702;48.130;-1.696;2023-10-09T04:46:44;15.90;99.90
17174;DHT22;8702;48.130;-1.696;2023-10-09T04:49:32;16.00;99.90
17174;DHT22;8702;48.130;-1.696;2023-10-09T04:52:15;16.00;99.90
17174;DHT22;8702;48.130;-1.696;2023-10-09T04:55:06;15.90;99.90
17174;DHT22;8702;48.130;-1.696;2023-10-09T04:57:41;15.70;99.90
17174;DHT22;8702;48.130;-1.696;2023-10-09T05:00:26;15.70;99.90
17174;DHT22;8702;48.130;-1.696;2023-10-09T05:03:12;15.60;99.90
17174;DHT22;8702;48.130;-1.696;2023-10-09T05:05:52;15.60;99.90
17174;DHT22;8702;48.130;-1.696;2023-10-09T05:08:26;15.50;99.90
17174;DHT22;8702;48.130;-1.696;2023-10-09T05:10:55;15.40;99.90
17174;DHT22;8702;48.130;-1.696;2023-10-09T05:13:48;15.40;99.90
17174;DHT22;8702;48.130;-1.696;2023-10-09T05:16:23;15.40;99.90
17174;DHT22;8702;48.130;-1.696;2023-10-09T05:18:53;15.30;99.90
17174;DHT22;8702;48.130;-1.696;2023-10-09T05:21:23;15.20;99.90
17174;DHT22;8702;48.130;-1.696;2023-10-09T05:24:11;15.10;99.90
17174;DHT22;8702;48.130;-1.696;2023-10-09T05:26:45;15.00;99.90
17174;DHT22;8702;48.130;-1.696;2023-10-09T05:29:19;14.90;99.90
17174;DHT22;8702;48.130;-1.696;2023-10-09T05:31:46;14.90;99.90
17174;DHT22;8702;48.130;-1.696;2023-10-09T05:34:23;14.80;99.90
17174;DHT22;8702;48.130;-1.696;2023-10-09T05:36:50;14.80;99.90
17174;DHT22;8702;48.130;-1.696;2023-10-09T05:39:17;14.80;99.90
17174;DHT22;8702;48.130;-1.696;2023-10-09T05:41:44;14.80;99.90
17174;DHT22;8702;48.130;-1.696;2023-10-09T05:44:25;14.80;99.90
17174;DHT22;8702;48.130;-1.696;2023-10-09T05:47:09;14.90;99.90
17174;DHT22;8702;48.130;-1.696;2023-10-09T05:49:54;14.80;99.90
17174;DHT22;8702;48.130;-1.696;2023-10-09T05:52:29;14.90;99.90
17174;DHT22;8702;48.130;-1.696;2023-10-09T05:55:13;14.80;99.90
17174;DHT22;8702;48.130;-1.696;2023-10-09T05:57:59;14.90;99.90
17174;DHT22;8702;48.130;-1.696;2023-10-09T06:00:44;14.90;99.90
17174;DHT22;8702;48.130;-1.696;2023-10-09T06:03:28;14.80;99.90
17174;DHT22;8702;48.130;-1.696;2023-10-09T06:06:14;14.70;99.90
17174;DHT22;8702;48.130;-1.696;2023-10-09T06:09:00;14.70;99.90
17174;DHT22;8702;48.130;-1.696;2023-10-09T06:11:54;14.80;99.90
17174;DHT22;8702;48.130;-1.696;2023-10-09T06:14:37;14.70;99.90
17174;DHT22;8702;48.130;-1.696;2023-10-09T06:17:23;14.70;99.90
17174;DHT22;8702;48.130;-1.696;2023-10-09T06:19:50;14.60;99.90
17174;DHT22;8702;48.130;-1.696;2023-10-09T06:22:24;14.60;99.90
17174;DHT22;8702;48.130;-1.696;2023-10-09T06:25:10;14.50;99.90
17174;DHT22;8702;48.130;-1.696;2023-10-09T06:27:38;14.60;99.90
17174;DHT22;8702;48.130;-1.696;2023-10-09T06:30:22;14.60;99.90
17174;DHT22;8702;48.130;-1.696;2023-10-09T06:32:52;14.60;99.90
17174;DHT22;8702;48.130;-1.696;2023-10-09T06:35:36;14.70;99.90
17174;DHT22;8702;48.130;-1.696;2023-10-09T06:38:05;14.60;99.90
17174;DHT22;8702;48.130;-1.696;2023-10-09T06:40:49;14.70;99.90
17174;DHT22;8702;48.130;-1.696;2023-10-09T06:43:33;14.80;99.90
17174;DHT22;8702;48.130;-1.696;2023-10-09T06:46:15;14.90;99.90
17174;DHT22;8702;48.130;-1.696;2023-10-09T06:48:59;14.80;99.90
17174;DHT22;8702;48.130;-1.696;2023-10-09T06:51:46;14.80;99.90
17174;DHT22;8702;48.130;-1.696;2023-10-09T06:54:13;14.80;99.90
17174;DHT22;8702;48.130;-1.696;2023-10-09T06:56:42;14.90;99.90
17174;DHT22;8702;48.130;-1.696;2023-10-09T06:59:26;14.80;99.90
17174;DHT22;8702;48.130;-1.696;2023-10-09T07:02:07;14.80;99.90
17174;DHT22;8702;48.130;-1.696;2023-10-09T07:04:52;14.80;99.90
17174;DHT22;8702;48.130;-1.696;2023-10-09T07:07:22;14.90;99.90
17174;DHT22;8702;48.130;-1.696;2023-10-09T07:09:51;14.90;99.90
17174;DHT22;8702;48.130;-1.696;2023-10-09T07:12:39;14.90;99.90
17174;DHT22;8702;48.130;-1.696;2023-10-09T07:15:09;15.00;99.90
17174;DHT22;8702;48.130;-1.696;2023-10-09T07:18:05;14.90;99.90
17174;DHT22;8702;48.130;-1.696;2023-10-09T07:20:45;14.90;99.90
17174;DHT22;8702;48.130;-1.696;2023-10-09T07:23:25;15.00;99.90
17174;DHT22;8702;48.130;-1.696;2023-10-09T07:26:04;15.10;99.90
17174;DHT22;8702;48.130;-1.696;2023-10-09T07:28:46;15.10;99.90
17174;DHT22;8702;48.130;-1.696;2023-10-09T07:31:19;15.20;99.90
17174;DHT22;8702;48.130;-1.696;2023-10-09T07:33:53;15.20;99.90
17174;DHT22;8702;48.130;-1.696;2023-10-09T07:36:32;15.40;99.90
17174;DHT22;8702;48.130;-1.696;2023-10-09T07:39:03;15.50;99.90
17174;DHT22;8702;48.130;-1.696;2023-10-09T07:41:38;15.60;99.90
17174;DHT22;8702;48.130;-1.696;2023-10-09T07:44:11;15.70;99.90
17174;DHT22;8702;48.130;-1.696;2023-10-09T07:47:03;15.90;99.90
17174;DHT22;8702;48.130;-1.696;2023-10-09T07:49:48;16.00;99.90
17174;DHT22;8702;48.130;-1.696;2023-10-09T07:52:18;16.00;99.90
17174;DHT22;8702;48.130;-1.696;2023-10-09T07:54:48;16.00;99.90
17174;DHT22;8702;48.130;-1.696;2023-10-09T07:57:20;16.10;99.90
17174;DHT22;8702;48.130;-1.696;2023-10-09T07:59:52;16.20;99.90
17174;DHT22;8702;48.130;-1.696;2023-10-09T08:02:28;16.30;99.90
17174;DHT22;8702;48.130;-1.696;2023-10-09T08:04:58;16.30;99.90
17174;DHT22;8702;48.130;-1.696;2023-10-09T08:07:29;16.50;99.90
17174;DHT22;8702;48.130;-1.696;2023-10-09T08:10:01;16.60;99.90
17174;DHT22;8702;48.130;-1.696;2023-10-09T08:12:45;16.70;99.90
17174;DHT22;8702;48.130;-1.696;2023-10-09T08:15:26;16.80;99.90
17174;DHT22;8702;48.130;-1.696;2023-10-09T08:18:00;16.90;99.90
17174;DHT22;8702;48.130;-1.696;2023-10-09T08:20:36;17.00;99.90
17174;DHT22;8702;48.130;-1.696;2023-10-09T08:23:36;17.00;99.90
17174;DHT22;8702;48.130;-1.696;2023-10-09T08:26:15;17.10;99.90
17174;DHT22;8702;48.130;-1.696;2023-10-09T08:28:54;17.20;99.90
17174;DHT22;8702;48.130;-1.696;2023-10-09T08:31:42;17.30;99.90
17174;DHT22;8702;48.130;-1.696;2023-10-09T08:34:11;17.40;99.90
17174;DHT22;8702;48.130;-1.696;2023-10-09T08:36:49;17.50;99.90
17174;DHT22;8702;48.130;-1.696;2023-10-09T08:39:18;17.60;99.90
17174;DHT22;8702;48.130;-1.696;2023-10-09T08:41:51;17.60;99.90
17174;DHT22;8702;48.130;-1.696;2023-10-09T08:44:20;17.70;99.90
17174;DHT22;8702;48.130;-1.696;2023-10-09T08:46:53;17.90;99.90
17174;DHT22;8702;48.130;-1.696;2023-10-09T08:49:20;17.90;99.90
17174;DHT22;8702;48.130;-1.696;2023-10-09T08:51:48;18.00;99.90
17174;DHT22;8702;48.130;-1.696;2023-10-09T08:54:15;18.10;99.90
17174;DHT22;8702;48.130;-1.696;2023-10-09T08:56:42;18.20;99.90
17174;DHT22;8702;48.130;-1.696;2023-10-09T08:59:15;18.30;99.90
17174;DHT22;8702;48.130;-1.696;2023-10-09T09:01:44;18.40;99.90
17174;DHT22;8702;48.130;-1.696;2023-10-09T09:04:37;18.40;99.90
17174;DHT22;8702;48.130;-1.696;2023-10-09T09:07:05;18.50;99.90
17174;DHT22;8702;48.130;-1.696;2023-10-09T09:09:32;18.60;99.90
17174;DHT22;8702;48.130;-1.696;2023-10-09T09:12:00;18.70;99.90
17174;DHT22;8702;48.130;-1.696;2023-10-09T09:14:36;18.80;99.90
17174;DHT22;8702;48.130;-1.696;2023-10-09T09:17:04;18.80;99.90
17174;DHT22;8702;48.130;-1.696;2023-10-09T09:19:32;18.90;99.90
17174;DHT22;8702;48.130;-1.696;2023-10-09T09:22:05;19.00;99.90
17174;DHT22;8702;48.130;-1.696;2023-10-09T09:24:39;19.00;99.90
17174;DHT22;8702;48.130;-1.696;2023-10-09T09:27:11;19.10;99.90
17174;DHT22;8702;48.130;-1.696;2023-10-09T09:29:44;19.10;99.90
17174;DHT22;8702;48.130;-1.696;2023-10-09T09:34:55;19.30;99.90
17174;DHT22;8702;48.130;-1.696;2023-10-09T09:37:28;19.40;99.90
17174;DHT22;8702;48.130;-1.696;2023-10-09T09:39:57;19.40;99.90
17174;DHT22;8702;48.130;-1.696;2023-10-09T09:42:27;19.40;99.90
17174;DHT22;8702;48.130;-1.696;2023-10-09T09:44:59;19.40;99.90
17174;DHT22;8702;48.130;-1.696;2023-10-09T09:47:27;19.50;99.90
17174;DHT22;8702;48.130;-1.696;2023-10-09T09:49:55;19.60;99.90
17174;DHT22;8702;48.130;-1.696;2023-10-09T09:52:30;19.60;99.90
17174;DHT22;8702;48.130;-1.696;2023-10-09T09:55:05;19.70;99.90
17174;DHT22;8702;48.130;-1.696;2023-10-09T09:57:33;19.80;99.90
17174;DHT22;8702;48.130;-1.696;2023-10-09T10:00:08;19.80;99.90
17174;DHT22;8702;48.130;-1.696;2023-10-09T10:02:54;19.90;99.90
17174;DHT22;8702;48.130;-1.696;2023-10-09T10:05:25;20.00;99.90
17174;DHT22;8702;48.130;-1.696;2023-10-09T10:07:57;20.20;99.90
17174;DHT22;8702;48.130;-1.696;2023-10-09T10:10:36;20.20;99.90
17174;DHT22;8702;48.130;-1.696;2023-10-09T10:13:13;20.30;99.90
17174;DHT22;8702;48.130;-1.696;2023-10-09T10:15:59;20.50;99.90
17174;DHT22;8702;48.130;-1.696;2023-10-09T10:18:52;20.50;99.90
17174;DHT22;8702;48.130;-1.696;2023-10-09T10:21:20;20.50;99.90
17174;DHT22;8702;48.130;-1.696;2023-10-09T10:24:00;20.60;99.90
17174;DHT22;8702;48.130;-1.696;2023-10-09T10:26:32;20.70;99.90
17174;DHT22;8702;48.130;-1.696;2023-10-09T10:29:16;20.70;99.90
17174;DHT22;8702;48.130;-1.696;2023-10-09T10:31:55;20.70;99.90
17174;DHT22;8702;48.130;-1.696;2023-10-09T10:34:23;20.80;99.90
17174;DHT22;8702;48.130;-1.696;2023-10-09T10:36:49;20.90;99.90
17174;DHT22;8702;48.130;-1.696;2023-10-09T10:39:19;20.90;99.90
17174;DHT22;8702;48.130;-1.696;2023-10-09T10:42:01;21.00;99.90
17174;DHT22;8702;48.130;-1.696;2023-10-09T10:44:33;21.00;99.90
17174;DHT22;8702;48.130;-1.696;2023-10-09T10:47:11;21.00;99.90
17174;DHT22;8702;48.130;-1.696;2023-10-09T10:49:58;21.00;99.90
17174;DHT22;8702;48.130;-1.696;2023-10-09T10:52:36;21.00;99.90
17174;DHT22;8702;48.130;-1.696;2023-10-09T10:55:11;21.10;99.90
17174;DHT22;8702;48.130;-1.696;2023-10-09T10:57:44;21.10;99.90
17174;DHT22;8702;48.130;-1.696;2023-10-09T19:33:31;24.50;81.40
17174;DHT22;8702;48.130;-1.696;2023-10-09T19:36:02;24.40;81.90
17174;DHT22;8702;48.130;-1.696;2023-10-09T19:38:30;24.30;81.90
17174;DHT22;8702;48.130;-1.696;2023-10-09T19:40:56;24.20;82.10
17174;DHT22;8702;48.130;-1.696;2023-10-09T19:43:23;24.20;82.60
17174;DHT22;8702;48.130;-1.696;2023-10-09T19:46:01;24.20;83.20
17174;DHT22;8702;48.130;-1.696;2023-10-09T19:48:28;24.10;83.70
17174;DHT22;8702;48.130;-1.696;2023-10-09T19:50:59;24.10;83.90
17174;DHT22;8702;48.130;-1.696;2023-10-09T19:53:26;24.00;84.20
17174;DHT22;8702;48.130;-1.696;2023-10-09T19:55:53;23.90;84.40
17174;DHT22;8702;48.130;-1.696;2023-10-09T19:58:21;23.90;84.90
17174;DHT22;8702;48.130;-1.696;2023-10-09T20:00:49;23.80;85.10
17174;DHT22;8702;48.130;-1.696;2023-10-09T20:03:17;23.80;85.50
17174;DHT22;8702;48.130;-1.696;2023-10-09T20:05:46;23.80;85.80
17174;DHT22;8702;48.130;-1.696;2023-10-09T20:08:13;23.80;86.30
17174;DHT22;8702;48.130;-1.696;2023-10-09T20:10:40;23.60;86.90
17174;DHT22;8702;48.130;-1.696;2023-10-09T20:13:09;23.60;87.70
17174;DHT22;8702;48.130;-1.696;2023-10-09T20:15:37;23.50;89.80
17174;DHT22;8702;48.130;-1.696;2023-10-09T20:18:07;23.50;90.00
17174;DHT22;8702;48.130;-1.696;2023-10-09T20:20:37;23.40;90.10
17174;DHT22;8702;48.130;-1.696;2023-10-09T20:23:04;23.30;90.10
17174;DHT22;8702;48.130;-1.696;2023-10-09T20:25:31;23.30;90.60
17174;DHT22;8702;48.130;-1.696;2023-10-09T20:27:58;23.20;90.30
17174;DHT22;8702;48.130;-1.696;2023-10-09T20:30:25;23.20;90.10
17174;DHT22;8702;48.130;-1.696;2023-10-09T20:32:52;23.20;90.10
17174;DHT22;8702;48.130;-1.696;2023-10-09T20:35:18;23.10;90.10
17174;DHT22;8702;48.130;-1.696;2023-10-09T20:37:53;23.00;90.70
17174;DHT22;8702;48.130;-1.696;2023-10-09T20:40:22;22.80;91.10
17174;DHT22;8702;48.130;-1.696;2023-10-09T20:42:50;22.70;91.40
17174;DHT22;8702;48.130;-1.696;2023-10-09T20:45:17;22.60;91.30
17174;DHT22;8702;48.130;-1.696;2023-10-09T20:47:44;22.50;91.20
17174;DHT22;8702;48.130;-1.696;2023-10-09T20:50:13;22.50;91.40
17174;DHT22;8702;48.130;-1.696;2023-10-09T20:52:45;22.30;91.70
17174;DHT22;8702;48.130;-1.696;2023-10-09T20:55:14;22.30;91.90
17174;DHT22;8702;48.130;-1.696;2023-10-09T20:57:45;22.20;91.80
17174;DHT22;8702;48.130;-1.696;2023-10-09T21:00:12;22.10;92.10
17174;DHT22;8702;48.130;-1.696;2023-10-09T21:02:45;22.10;92.30
17174;DHT22;8702;48.130;-1.696;2023-10-09T21:05:13;22.10;92.50
17174;DHT22;8702;48.130;-1.696;2023-10-09T21:07:40;22.00;92.70
17174;DHT22;8702;48.130;-1.696;2023-10-09T21:10:07;22.00;92.20
17174;DHT22;8702;48.130;-1.696;2023-10-09T21:12:40;22.00;92.20
17174;DHT22;8702;48.130;-1.696;2023-10-09T21:15:09;22.00;92.50
17174;DHT22;8702;48.130;-1.696;2023-10-09T21:17:37;21.90;92.70
17174;DHT22;8702;48.130;-1.696;2023-10-09T21:20:05;21.90;92.90
17174;DHT22;8702;48.130;-1.696;2023-10-09T21:22:35;21.80;93.20
17174;DHT22;8702;48.130;-1.696;2023-10-09T21:25:04;21.90;92.80
17174;DHT22;8702;48.130;-1.696;2023-10-09T21:27:31;21.80;93.20
17174;DHT22;8702;48.130;-1.696;2023-10-09T21:30:00;21.80;93.20
17174;DHT22;8702;48.130;-1.696;2023-10-09T21:32:29;21.80;93.20
17174;DHT22;8702;48.130;-1.696;2023-10-09T21:35:05;21.70;93.40
17174;DHT22;8702;48.130;-1.696;2023-10-09T21:37:31;21.50;93.60
17174;DHT22;8702;48.130;-1.696;2023-10-09T21:39:59;21.50;93.50
17174;DHT22;8702;48.130;-1.696;2023-10-09T21:42:28;21.40;93.70
17174;DHT22;8702;48.130;-1.696;2023-10-09T21:44:55;21.30;94.20
17174;DHT22;8702;48.130;-1.696;2023-10-09T21:47:23;21.20;94.20
17174;DHT22;8702;48.130;-1.696;2023-10-09T21:49:50;21.10;94.40
17174;DHT22;8702;48.130;-1.696;2023-10-09T21:52:17;21.00;94.50
17174;DHT22;8702;48.130;-1.696;2023-10-09T21:54:43;21.00;94.60
17174;DHT22;8702;48.130;-1.696;2023-10-09T21:57:10;21.00;94.20
17174;DHT22;8702;48.130;-1.696;2023-10-09T21:59:37;21.00;94.00
17174;DHT22;8702;48.130;-1.696;2023-10-09T22:02:06;20.90;94.30
17174;DHT22;8702;48.130;-1.696;2023-10-09T22:04:34;20.90;95.00
17174;DHT22;8702;48.130;-1.696;2023-10-09T22:07:02;20.80;95.00
17174;DHT22;8702;48.130;-1.696;2023-10-09T22:09:29;20.80;95.00
17174;DHT22;8702;48.130;-1.696;2023-10-09T22:11:56;20.80;95.10
17174;DHT22;8702;48.130;-1.696;2023-10-09T22:14:22;20.80;95.00
17174;DHT22;8702;48.130;-1.696;2023-10-09T22:16:50;20.80;95.00
17174;DHT22;8702;48.130;-1.696;2023-10-09T22:19:17;20.80;95.10
17174;DHT22;8702;48.130;-1.696;2023-10-09T22:21:51;20.70;95.30
17174;DHT22;8702;48.130;-1.696;2023-10-09T22:24:21;20.80;95.20
17174;DHT22;8702;48.130;-1.696;2023-10-09T22:26:48;20.70;95.20
17174;DHT22;8702;48.130;-1.696;2023-10-09T22:29:16;20.70;95.20
17174;DHT22;8702;48.130;-1.696;2023-10-09T22:31:44;20.70;95.30
17174;DHT22;8702;48.130;-1.696;2023-10-09T22:34:11;20.60;95.20
17174;DHT22;8702;48.130;-1.696;2023-10-09T22:36:41;20.60;95.60
17174;DHT22;8702;48.130;-1.696;2023-10-09T22:39:14;20.60;95.60
17174;DHT22;8702;48.130;-1.696;2023-10-09T22:41:58;20.50;95.80
17174;DHT22;8702;48.130;-1.696;2023-10-09T22:44:26;20.50;95.70
17174;DHT22;8702;48.130;-1.696;2023-10-09T22:46:57;20.40;96.00
17174;DHT22;8702;48.130;-1.696;2023-10-09T22:49:30;20.30;96.30
17174;DHT22;8702;48.130;-1.696;2023-10-09T22:52:00;20.10;96.20
17174;DHT22;8702;48.130;-1.696;2023-10-09T22:54:30;20.10;96.30
17174;DHT22;8702;48.130;-1.696;2023-10-09T22:57:00;20.10;96.10
17174;DHT22;8702;48.130;-1.696;2023-10-09T22:59:29;20.00;96.40
17174;DHT22;8702;48.130;-1.696;2023-10-09T23:01:57;19.90;96.50
17174;DHT22;8702;48.130;-1.696;2023-10-09T23:04:24;19.90;96.80
17174;DHT22;8702;48.130;-1.696;2023-10-09T23:07:02;19.80;96.70
17174;DHT22;8702;48.130;-1.696;2023-10-09T23:09:40;19.80;96.60
17174;DHT22;8702;48.130;-1.696;2023-10-09T23:12:16;19.80;96.70
17174;DHT22;8702;48.130;-1.696;2023-10-09T23:14:47;19.80;96.60
17174;DHT22;8702;48.130;-1.696;2023-10-09T23:17:15;19.80;96.60
17174;DHT22;8702;48.130;-1.696;2023-10-09T23:19:44;19.70;97.10
17174;DHT22;8702;48.130;-1.696;2023-10-09T23:22:20;19.70;97.30
17174;DHT22;8702;48.130;-1.696;2023-10-09T23:25:03;19.60;97.30
17174;DHT22;8702;48.130;-1.696;2023-10-09T23:27:37;19.40;97.50
17174;DHT22;8702;48.130;-1.696;2023-10-09T23:30:14;19.50;97.20
17174;DHT22;8702;48.130;-1.696;2023-10-09T23:32:42;19.50;97.30
17174;DHT22;8702;48.130;-1.696;2023-10-09T23:35:13;19.50;97.30
17174;DHT22;8702;48.130;-1.696;2023-10-09T23:37:45;19.50;97.60
17174;DHT22;8702;48.130;-1.696;2023-10-09T23:40:27;19.50;97.40
17174;DHT22;8702;48.130;-1.696;2023-10-09T23:43:05;19.40;97.50
17174;DHT22;8702;48.130;-1.696;2023-10-09T23:45:38;19.50;97.40
17174;DHT22;8702;48.130;-1.696;2023-10-09T23:48:06;19.50;97.40
17174;DHT22;8702;48.130;-1.696;2023-10-09T23:50:40;19.50;97.40
17174;DHT22;8702;48.130;-1.696;2023-10-09T23:53:10;19.50;97.40
17174;DHT22;8702;48.130;-1.696;2023-10-09T23:55:43;19.40;97.80
17174;DHT22;8702;48.130;-1.696;2023-10-09T23:58:15;19.30;98.10
